Time;durP1;ratioP1;P1;durP2;ratioP2;P2;SDS_P1;SDS_P2;PMS_P1;PMS_P2;Temp;Humidity;BMP_temperature;BMP_pressure;BME280_temperature;BME280_humidity;BME280_pressure;Samples;Min_cycle;Max_cycle;Signal;HPM_P1;HPM_P2
2022/09/29 00:01:02;;;;;;;6.35;5.13;;;7.20;99.90;;;;;;4998332;28;20244;-79
2022/09/29 00:03:28;;;;;;;7.50;5.85;;;7.20;99.90;;;;;;4974119;28;20340;-78
2022/09/29 00:05:55;;;;;;;7.35;5.75;;;7.20;99.90;;;;;;4995023;28;20050;-77
2022/09/29 00:08:23;;;;;;;7.18;5.50;;;7.20;99.90;;;;;;4992747;28;20046;-78
2022/09/29 00:10:48;;;;;;;5.32;4.40;;;7.20;99.90;;;;;;4975467;28;20126;-78
2022/09/29 00:13:15;;;;;;;9.70;5.78;;;7.20;99.90;;;;;;4995879;28;20504;-78
2022/09/29 00:15:41;;;;;;;5.78;4.38;;;7.20;99.90;;;;;;4992153;28;20047;-79
2022/09/29 00:18:08;;;;;;;5.88;4.60;;;7.20;99.90;;;;;;4989916;28;20103;-78
2022/09/29 00:20:34;;;;;;;6.15;4.85;;;7.20;99.90;;;;;;4992505;28;20636;-78
2022/09/29 00:22:59;;;;;;;8.50;5.65;;;7.20;99.90;;;;;;4993948;28;20050;-78
2022/09/29 00:25:25;;;;;;;4.45;2.80;;;7.20;99.90;;;;;;4998069;28;20252;-78
2022/09/29 00:27:51;;;;;;;10.32;2.22;;;7.10;99.90;;;;;;5007108;28;20041;-78
2022/09/29 00:30:17;;;;;;;9.98;2.28;;;7.10;99.90;;;;;;4994908;28;20037;-79
2022/09/29 00:32:42;;;;;;;3.03;1.92;;;6.90;99.90;;;;;;4997151;28;20085;-79
2022/09/29 00:35:09;;;;;;;4.22;2.50;;;6.90;99.90;;;;;;4991879;28;20184;-78
2022/09/29 00:37:35;;;;;;;3.60;3.30;;;6.80;99.90;;;;;;4991657;28;20046;-78
2022/09/29 00:40:02;;;;;;;5.90;5.30;;;6.80;99.90;;;;;;4989134;28;20128;-78
2022/09/29 00:42:28;;;;;;;6.18;5.57;;;6.80;99.90;;;;;;4994306;28;20154;-78
2022/09/29 00:45:04;;;;;;;5.78;5.18;;;6.80;99.90;;;;;;4993184;28;20077;-78
2022/09/29 00:47:33;;;;;;;6.90;6.30;;;6.90;99.90;;;;;;4998499;28;20049;-78
2022/09/29 00:50:25;;;;;;;7.38;5.85;;;6.90;99.90;;;;;;4990562;28;20046;-78
2022/09/29 00:52:56;;;;;;;7.27;6.43;;;6.90;99.90;;;;;;4995750;28;20084;-79
2022/09/29 00:55:26;;;;;;;8.80;5.93;;;6.90;99.90;;;;;;4974135;28;20315;-78
2022/09/29 00:57:59;;;;;;;7.35;5.90;;;6.90;99.90;;;;;;4996146;28;20101;-81
2022/09/29 01:00:25;;;;;;;7.65;6.32;;;6.90;99.90;;;;;;5008066;28;20948;-79
2022/09/29 01:02:57;;;;;;;6.88;6.28;;;6.90;99.90;;;;;;5000175;28;20060;-79
2022/09/29 01:05:31;;;;;;;6.78;6.13;;;6.90;99.90;;;;;;4987580;28;20046;-79
2022/09/29 01:08:04;;;;;;;7.85;6.68;;;6.90;99.90;;;;;;4995934;28;20049;-79
2022/09/29 01:10:30;;;;;;;7.30;6.60;;;6.80;99.90;;;;;;4989893;28;20037;-78
2022/09/29 01:12:57;;;;;;;7.20;6.50;;;6.80;99.90;;;;;;4989266;28;20400;-78
2022/09/29 01:15:23;;;;;;;8.07;6.57;;;6.80;99.90;;;;;;4974806;28;20181;-78
2022/09/29 01:17:48;;;;;;;12.93;2.90;;;6.80;99.90;;;;;;4984563;28;20058;-78
2022/09/29 01:20:19;;;;;;;3.63;2.90;;;6.80;99.90;;;;;;4988506;28;20428;-78
2022/09/29 01:22:50;;;;;;;3.47;3.15;;;6.70;99.90;;;;;;4988111;28;20044;-78
2022/09/29 01:25:43;;;;;;;1.30;1.20;;;6.60;99.90;;;;;;4989927;28;20129;-78
2022/09/29 01:28:22;;;;;;;32.38;1.88;;;6.50;99.90;;;;;;4990833;28;20041;-77
2022/09/29 01:31:05;;;;;;;35.60;2.33;;;6.40;99.90;;;;;;4995131;28;20077;-78
2022/09/29 01:34:04;;;;;;;11.05;2.00;;;6.40;99.90;;;;;;4972738;28;20066;-78
2022/09/29 01:36:45;;;;;;;27.92;3.97;;;6.30;99.90;;;;;;4992938;28;20042;-78
2022/09/29 01:39:35;;;;;;;3.97;3.10;;;6.30;99.90;;;;;;4991951;28;20064;-78
2022/09/29 01:42:16;;;;;;;4.28;2.78;;;6.30;99.90;;;;;;4991477;28;20046;-79
2022/09/29 01:44:54;;;;;;;5.70;2.40;;;6.20;99.90;;;;;;4991185;28;20439;-79
2022/09/29 01:47:27;;;;;;;6.82;2.53;;;6.20;99.90;;;;;;4988896;28;20038;-78
2022/09/29 01:50:07;;;;;;;8.95;3.30;;;6.20;99.90;;;;;;4985932;28;20053;-78
2022/09/29 01:52:41;;;;;;;5.00;3.20;;;6.20;99.90;;;;;;4982724;28;20034;-78
2022/09/29 01:55:14;;;;;;;3.40;3.10;;;6.20;99.90;;;;;;4986822;28;20046;-78
2022/09/29 01:57:51;;;;;;;3.85;3.20;;;6.20;99.90;;;;;;4993190;28;20037;-79
2022/09/29 02:00:18;;;;;;;5.40;4.00;;;6.20;99.90;;;;;;4986296;28;20749;-78
2022/09/29 02:03:10;;;;;;;11.10;5.28;;;6.10;99.90;;;;;;4986457;28;20048;-78
2022/09/29 02:05:57;;;;;;;13.32;4.50;;;6.10;99.90;;;;;;4987857;28;20039;-78
2022/09/29 02:08:32;;;;;;;6.15;4.50;;;6.10;99.90;;;;;;4987730;28;20048;-78
2022/09/29 02:11:00;;;;;;;6.15;3.50;;;6.10;99.90;;;;;;5007919;28;20096;-78
2022/09/29 02:13:30;;;;;;;16.25;3.42;;;6.10;99.90;;;;;;4974607;28;20042;-78
2022/09/29 02:15:57;;;;;;;21.90;3.50;;;6.10;99.90;;;;;;4994113;28;20052;-78
2022/09/29 02:18:31;;;;;;;89.65;5.22;;;6.00;99.90;;;;;;4985171;28;20100;-78
2022/09/29 02:20:57;;;;;;;70.53;3.80;;;6.00;99.90;;;;;;4988672;28;20148;-78
2022/09/29 02:23:22;;;;;;;35.42;4.05;;;6.00;99.90;;;;;;4992875;28;20479;-78
2022/09/29 02:25:49;;;;;;;100.18;5.25;;;6.00;99.90;;;;;;4990764;28;20104;-78
2022/09/29 02:28:16;;;;;;;58.20;4.47;;;5.90;99.90;;;;;;4988205;28;20045;-79
2022/09/29 02:30:42;;;;;;;45.00;4.53;;;5.90;99.90;;;;;;4989680;28;20088;-78
2022/09/29 02:33:23;;;;;;;42.40;4.40;;;5.90;99.90;;;;;;4983623;28;20060;-80
2022/09/29 02:36:09;;;;;;;23.60;4.43;;;5.90;99.90;;;;;;4982257;28;20064;-78
2022/09/29 02:38:56;;;;;;;8.80;3.80;;;5.90;99.90;;;;;;4990897;28;20053;-78
2022/09/29 02:41:37;;;;;;;20.10;3.00;;;5.90;99.90;;;;;;4990531;28;20054;-78
2022/09/29 02:44:23;;;;;;;3.35;3.05;;;5.90;99.90;;;;;;4990304;28;20149;-78
2022/09/29 02:47:07;;;;;;;49.10;3.50;;;5.80;99.90;;;;;;4979620;28;20045;-78
2022/09/29 02:50:13;;;;;;;32.15;2.97;;;5.80;99.90;;;;;;4985063;28;20046;-78
2022/09/29 02:52:58;;;;;;;3.55;2.60;;;5.80;99.90;;;;;;4988422;28;20042;-78
2022/09/29 02:55:29;;;;;;;9.45;2.70;;;5.70;99.90;;;;;;4979576;28;20164;-78
2022/09/29 02:58:00;;;;;;;33.63;3.80;;;5.70;99.90;;;;;;4992689;28;20042;-79
2022/09/29 03:00:27;;;;;;;39.55;3.78;;;5.70;99.90;;;;;;4987157;28;20070;-80
2022/09/29 03:02:52;;;;;;;40.58;3.92;;;5.60;99.90;;;;;;4978242;28;20488;-77
2022/09/29 03:05:21;;;;;;;28.75;2.88;;;5.60;99.90;;;;;;4991325;28;20040;-78
2022/09/29 03:07:47;;;;;;;13.13;2.92;;;5.50;99.90;;;;;;4988949;28;20042;-78
2022/09/29 03:10:14;;;;;;;57.65;4.32;;;5.50;99.90;;;;;;4992382;28;20045;-76
2022/09/29 03:12:40;;;;;;;33.65;3.80;;;5.50;99.90;;;;;;4996216;28;20061;-78
2022/09/29 03:15:07;;;;;;;23.73;3.80;;;5.50;99.90;;;;;;4990214;28;20094;-78
2022/09/29 03:17:33;;;;;;;33.35;3.53;;;5.50;99.90;;;;;;4989781;28;20413;-78
2022/09/29 03:19:58;;;;;;;40.75;4.10;;;5.60;99.90;;;;;;4995129;28;20057;-78
2022/09/29 03:22:24;;;;;;;13.50;3.42;;;5.50;99.90;;;;;;4995173;28;20042;-78
2022/09/29 03:24:50;;;;;;;29.00;3.97;;;5.50;99.90;;;;;;4996118;28;20046;-78
2022/09/29 03:27:15;;;;;;;24.15;3.60;;;5.60;99.90;;;;;;4987049;28;20033;-78
2022/09/29 03:29:41;;;;;;;15.88;3.67;;;5.60;99.90;;;;;;4999881;28;20113;-78
2022/09/29 03:32:07;;;;;;;13.25;3.40;;;5.60;99.90;;;;;;4987385;28;20092;-78
2022/09/29 03:34:34;;;;;;;6.97;3.83;;;5.50;99.90;;;;;;5006142;28;20042;-79
2022/09/29 03:37:00;;;;;;;4.93;3.80;;;5.60;99.90;;;;;;4991912;28;20498;-78
2022/09/29 03:39:26;;;;;;;5.78;4.10;;;5.60;99.90;;;;;;4994101;28;20078;-78
2022/09/29 03:41:51;;;;;;;13.10;4.47;;;5.60;99.90;;;;;;4993231;28;20146;-78
2022/09/29 03:44:17;;;;;;;5.35;4.15;;;5.60;99.90;;;;;;4992417;28;20597;-78
2022/09/29 03:46:43;;;;;;;8.90;4.20;;;5.60;99.90;;;;;;4971990;28;20076;-77
2022/09/29 03:49:13;;;;;;;15.65;4.80;;;5.60;99.90;;;;;;4992229;28;20117;-78
2022/09/29 03:51:39;;;;;;;22.85;5.80;;;5.60;99.90;;;;;;4976296;28;20043;-78
2022/09/29 03:54:05;;;;;;;26.20;5.35;;;5.60;99.90;;;;;;4989863;28;20056;-78
2022/09/29 03:56:31;;;;;;;16.42;5.43;;;5.60;99.90;;;;;;4991920;28;20042;-78
2022/09/29 03:58:57;;;;;;;45.40;7.22;;;5.70;99.90;;;;;;4993285;28;20515;-78
2022/09/29 04:01:22;;;;;;;38.10;6.75;;;5.60;99.90;;;;;;4995659;28;20081;-78
2022/09/29 04:03:48;;;;;;;62.70;6.95;;;5.70;99.90;;;;;;4991075;28;20203;-78
2022/09/29 04:06:14;;;;;;;46.22;6.20;;;5.70;99.90;;;;;;4982943;28;20038;-78
2022/09/29 04:08:39;;;;;;;37.45;6.78;;;5.70;99.90;;;;;;4991753;28;20169;-78
2022/09/29 04:11:05;;;;;;;9.85;4.80;;;5.70;99.90;;;;;;4998152;28;20060;-78
2022/09/29 04:13:31;;;;;;;21.35;5.10;;;5.70;99.90;;;;;;4992048;28;20050;-78
2022/09/29 04:15:58;;;;;;;15.18;5.00;;;5.70;99.90;;;;;;4994697;28;20050;-78
2022/09/29 04:18:24;;;;;;;65.72;7.07;;;5.70;99.90;;;;;;4985360;28;20054;-78
2022/09/29 04:20:50;;;;;;;44.83;6.60;;;5.70;99.90;;;;;;4992981;28;20670;-78
2022/09/29 04:23:16;;;;;;;59.95;6.45;;;5.70;99.90;;;;;;4990665;28;20044;-78
2022/09/29 04:25:44;;;;;;;28.83;5.75;;;5.70;99.90;;;;;;4993191;28;20582;-78
2022/09/29 04:28:10;;;;;;;24.95;5.75;;;5.70;99.90;;;;;;5001439;28;20042;-77
2022/09/29 04:30:36;;;;;;;29.35;5.40;;;5.70;99.90;;;;;;4986478;28;20045;-78
2022/09/29 04:33:02;;;;;;;22.55;5.55;;;5.60;99.90;;;;;;4989504;28;20393;-78
2022/09/29 04:35:27;;;;;;;23.63;5.50;;;5.60;99.90;;;;;;4994734;28;20077;-78
2022/09/29 04:37:56;;;;;;;19.08;5.25;;;5.60;99.90;;;;;;4993344;28;22368;-78
2022/09/29 04:40:22;;;;;;;25.60;5.70;;;5.60;99.90;;;;;;4988856;28;20061;-78
2022/09/29 04:42:48;;;;;;;37.05;5.70;;;5.60;99.90;;;;;;4994621;28;20045;-78
2022/09/29 04:45:14;;;;;;;13.68;5.47;;;5.60;99.90;;;;;;4992566;28;20056;-77
2022/09/29 04:47:39;;;;;;;29.27;5.80;;;5.50;99.90;;;;;;4999860;28;20030;-79
2022/09/29 04:50:05;;;;;;;20.73;5.50;;;5.50;99.90;;;;;;4993356;28;20137;-79
2022/09/29 04:52:31;;;;;;;16.65;5.40;;;5.40;99.90;;;;;;4993834;28;20100;-77
2022/09/29 04:54:56;;;;;;;16.83;5.93;;;5.40;99.90;;;;;;4997337;28;20507;-77
2022/09/29 04:57:22;;;;;;;11.20;5.30;;;5.40;99.90;;;;;;4996961;28;20049;-77
2022/09/29 04:59:50;;;;;;;12.13;5.30;;;5.30;99.90;;;;;;4993369;28;20043;-77
2022/09/29 05:02:17;;;;;;;14.23;5.30;;;5.30;99.90;;;;;;4988552;28;20049;-77
2022/09/29 05:04:47;;;;;;;35.20;6.20;;;5.30;99.90;;;;;;4996234;28;20098;-77
2022/09/29 05:07:18;;;;;;;15.63;5.20;;;5.30;99.90;;;;;;4975058;28;20210;-77
2022/09/29 05:09:44;;;;;;;24.30;5.43;;;5.20;99.90;;;;;;4992108;28;20519;-78
2022/09/29 05:12:09;;;;;;;26.48;5.45;;;5.20;99.90;;;;;;4991472;28;20408;-78
2022/09/29 05:14:35;;;;;;;20.27;5.18;;;5.20;99.90;;;;;;4984053;28;20370;-77
2022/09/29 05:17:01;;;;;;;27.60;5.50;;;5.10;99.90;;;;;;4988544;28;20141;-77
2022/09/29 05:19:26;;;;;;;50.67;5.80;;;5.10;99.90;;;;;;4986472;28;20052;-77
2022/09/29 05:21:52;;;;;;;65.38;6.35;;;5.10;99.90;;;;;;4990448;28;20457;-75
2022/09/29 05:24:18;;;;;;;51.92;7.32;;;5.10;99.90;;;;;;5011504;28;20050;-77
2022/09/29 05:26:43;;;;;;;62.15;7.05;;;5.10;99.90;;;;;;4984482;28;20068;-77
2022/09/29 05:29:09;;;;;;;59.83;6.63;;;5.00;99.90;;;;;;4994115;28;20488;-77
2022/09/29 05:31:34;;;;;;;71.20;7.60;;;5.00;99.90;;;;;;4992513;28;20046;-77
2022/09/29 05:34:00;;;;;;;28.08;6.55;;;5.00;99.90;;;;;;4997935;28;20034;-77
2022/09/29 05:36:25;;;;;;;29.75;6.43;;;4.90;99.90;;;;;;4988677;28;20046;-77
2022/09/29 05:38:51;;;;;;;18.40;6.03;;;4.90;99.90;;;;;;4994084;28;20521;-77
2022/09/29 05:41:22;;;;;;;16.45;5.88;;;4.90;99.90;;;;;;4994868;28;20413;-78
2022/09/29 05:43:48;;;;;;;21.27;6.00;;;4.90;99.90;;;;;;4985767;28;20073;-77
2022/09/29 05:46:15;;;;;;;9.18;7.47;;;4.90;99.90;;;;;;4986607;28;20060;-77
2022/09/29 05:48:42;;;;;;;27.20;6.82;;;4.90;99.90;;;;;;4989519;28;20041;-78
2022/09/29 05:51:11;;;;;;;12.40;7.25;;;4.90;99.90;;;;;;4989326;28;20046;-78
2022/09/29 05:53:37;;;;;;;7.55;6.95;;;4.90;99.90;;;;;;4992413;28;20053;-76
2022/09/29 05:56:08;;;;;;;7.05;6.30;;;5.00;99.90;;;;;;4990384;28;20034;-77
2022/09/29 05:58:35;;;;;;;18.08;6.72;;;5.00;99.90;;;;;;4993166;28;20085;-77
2022/09/29 06:01:27;;;;;;;25.33;7.53;;;5.10;99.90;;;;;;5002260;28;20404;-77
2022/09/29 06:03:54;;;;;;;13.88;7.20;;;5.10;99.90;;;;;;4990334;28;20046;-79
2022/09/29 06:06:23;;;;;;;20.48;6.55;;;5.00;99.90;;;;;;4997427;28;20034;-78
2022/09/29 06:08:49;;;;;;;16.17;7.50;;;5.00;99.90;;;;;;4993183;28;20564;-78
2022/09/29 06:11:24;;;;;;;33.50;7.55;;;5.10;99.90;;;;;;4974230;28;20069;-77
2022/09/29 06:13:51;;;;;;;22.02;7.18;;;5.10;99.90;;;;;;4990849;28;20123;-77
2022/09/29 06:16:19;;;;;;;22.45;7.07;;;5.10;99.90;;;;;;5001649;28;20044;-77
2022/09/29 06:18:46;;;;;;;25.67;7.22;;;5.10;99.90;;;;;;4990703;28;20042;-77
2022/09/29 06:21:13;;;;;;;61.58;7.93;;;5.20;99.90;;;;;;4978273;28;20091;-77
2022/09/29 06:23:39;;;;;;;27.20;7.45;;;5.20;99.90;;;;;;4991235;28;20384;-77
2022/09/29 06:26:08;;;;;;;24.25;6.93;;;5.20;99.90;;;;;;4999704;28;20426;-77
2022/09/29 06:28:33;;;;;;;16.00;7.60;;;5.20;99.90;;;;;;4994250;28;20053;-77
2022/09/29 06:31:02;;;;;;;19.98;7.88;;;5.20;99.90;;;;;;4992730;28;20113;-77
2022/09/29 06:33:28;;;;;;;13.38;8.38;;;5.30;99.90;;;;;;4993191;28;20050;-77
2022/09/29 06:38:39;;;;;;;17.80;8.20;;;5.40;99.90;;;;;;4994723;28;20057;-76
2022/09/29 06:41:06;;;;;;;19.30;8.85;;;5.50;99.90;;;;;;5003772;28;20037;-77
2022/09/29 06:43:31;;;;;;;26.40;8.82;;;5.60;99.90;;;;;;5006259;28;20052;-77
2022/09/29 06:45:57;;;;;;;47.40;9.55;;;5.60;99.90;;;;;;4993323;28;20046;-77
2022/09/29 06:48:23;;;;;;;48.13;9.70;;;5.60;99.90;;;;;;5008015;28;20072;-77
2022/09/29 06:50:48;;;;;;;63.03;10.77;;;5.60;99.90;;;;;;4971170;28;20089;-77
2022/09/29 06:53:14;;;;;;;76.53;10.90;;;5.70;99.90;;;;;;4996817;28;20050;-77
2022/09/29 06:55:39;;;;;;;32.60;10.52;;;5.60;99.90;;;;;;4978871;28;20112;-77
2022/09/29 06:58:05;;;;;;;83.22;12.43;;;5.70;99.90;;;;;;5001720;28;20041;-78
2022/09/29 07:00:32;;;;;;;54.38;10.80;;;5.70;99.90;;;;;;5003692;28;20053;-77
2022/09/29 07:02:58;;;;;;;68.20;12.10;;;5.80;99.90;;;;;;4997616;28;20078;-77
2022/09/29 07:05:23;;;;;;;58.25;12.30;;;5.80;99.90;;;;;;4976669;28;20074;-77
2022/09/29 07:07:49;;;;;;;26.17;12.10;;;5.80;99.90;;;;;;5006586;28;20050;-76
2022/09/29 07:10:15;;;;;;;72.38;15.15;;;5.90;99.90;;;;;;4984681;28;20099;-78
2022/09/29 07:12:43;;;;;;;55.97;13.55;;;6.00;99.90;;;;;;5002519;28;20055;-77
2022/09/29 07:15:09;;;;;;;33.95;13.55;;;6.00;99.90;;;;;;4996232;28;20057;-77
2022/09/29 07:17:34;;;;;;;30.50;14.38;;;6.10;99.90;;;;;;4988871;28;20403;-78
2022/09/29 07:20:00;;;;;;;30.42;15.05;;;6.20;99.90;;;;;;4981670;28;20054;-78
2022/09/29 07:22:26;;;;;;;68.00;20.23;;;6.30;99.90;;;;;;4998743;28;20054;-77
2022/09/29 07:24:52;;;;;;;30.10;19.50;;;6.40;99.90;;;;;;5001732;28;20046;-78
2022/09/29 07:27:22;;;;;;;35.58;19.40;;;6.40;99.90;;;;;;5001088;28;20120;-77
2022/09/29 07:29:49;;;;;;;32.53;21.27;;;6.40;99.90;;;;;;5011927;28;20099;-77
2022/09/29 07:32:15;;;;;;;31.85;22.00;;;6.40;99.90;;;;;;5007158;28;20045;-77
2022/09/29 07:34:40;;;;;;;26.98;22.42;;;6.50;99.90;;;;;;5008482;28;20049;-78
2022/09/29 07:37:06;;;;;;;34.25;24.52;;;6.60;99.90;;;;;;4996066;28;20092;-77
2022/09/29 07:39:31;;;;;;;28.25;20.77;;;6.80;99.90;;;;;;5014668;28;20053;-78
2022/09/29 07:41:57;;;;;;;26.38;21.55;;;6.80;99.90;;;;;;5008821;28;20057;-78
2022/09/29 07:44:23;;;;;;;25.60;20.52;;;7.00;99.90;;;;;;4994302;28;20049;-78
2022/09/29 07:46:49;;;;;;;26.33;21.27;;;7.10;99.90;;;;;;5004353;28;20053;-77
2022/09/29 07:49:15;;;;;;;27.27;22.55;;;7.20;99.90;;;;;;5004959;28;20068;-77
2022/09/29 07:51:40;;;;;;;28.00;22.55;;;7.20;99.90;;;;;;4998436;28;20064;-76
2022/09/29 07:54:06;;;;;;;30.63;23.30;;;7.40;99.90;;;;;;5000310;28;20033;-78
2022/09/29 07:56:32;;;;;;;24.00;21.25;;;7.40;99.90;;;;;;5005244;28;20041;-78
2022/09/29 07:58:57;;;;;;;25.55;22.75;;;7.50;99.90;;;;;;5004639;28;20085;-78
2022/09/29 08:01:24;;;;;;;27.20;21.80;;;7.60;99.90;;;;;;5005391;28;20096;-77
2022/09/29 08:03:54;;;;;;;25.27;21.92;;;7.70;99.90;;;;;;5006646;28;20104;-78
2022/09/29 08:06:21;;;;;;;26.38;22.45;;;7.80;99.90;;;;;;5010576;28;20101;-78
2022/09/29 08:08:47;;;;;;;25.88;22.40;;;7.90;99.90;;;;;;5006763;28;20053;-78
2022/09/29 08:11:15;;;;;;;26.05;22.35;;;8.00;99.90;;;;;;4997811;28;20560;-78
2022/09/29 08:13:41;;;;;;;27.92;23.27;;;8.10;99.90;;;;;;5007476;28;20111;-79
2022/09/29 08:16:10;;;;;;;23.80;21.30;;;8.20;99.90;;;;;;5004403;28;20049;-79
2022/09/29 08:18:36;;;;;;;26.42;21.23;;;8.20;99.90;;;;;;5007411;28;20493;-78
2022/09/29 08:21:03;;;;;;;24.55;19.40;;;8.20;99.90;;;;;;5006718;28;20219;-77
2022/09/29 08:23:33;;;;;;;23.13;20.63;;;8.30;99.90;;;;;;5015287;28;20050;-77
2022/09/29 08:26:01;;;;;;;27.13;23.08;;;8.30;99.90;;;;;;5010284;28;20046;-78
2022/09/29 08:28:27;;;;;;;26.33;21.90;;;8.40;99.90;;;;;;5004485;28;20887;-78
2022/09/29 08:30:53;;;;;;;24.55;21.17;;;8.40;99.90;;;;;;4998266;28;20046;-78
2022/09/29 08:33:18;;;;;;;27.35;22.95;;;8.50;99.90;;;;;;4992710;28;20597;-79
2022/09/29 08:35:44;;;;;;;27.63;22.88;;;8.60;99.90;;;;;;5006623;28;20195;-78
2022/09/29 08:38:10;;;;;;;31.38;26.05;;;8.60;99.90;;;;;;5006640;28;20068;-78
2022/09/29 08:40:35;;;;;;;31.17;25.10;;;8.70;99.90;;;;;;4998423;28;20065;-79
2022/09/29 08:43:25;;;;;;;29.35;24.30;;;8.80;99.90;;;;;;5005068;28;20069;-79
2022/09/29 08:46:13;;;;;;;25.77;22.40;;;8.90;99.90;;;;;;4985388;28;20404;-78
2022/09/29 08:48:43;;;;;;;28.13;23.67;;;9.00;99.90;;;;;;5007589;28;20046;-78
2022/09/29 08:51:31;;;;;;;26.75;22.38;;;9.10;99.90;;;;;;5003848;28;20124;-78
2022/09/29 08:54:05;;;;;;;25.20;21.55;;;9.20;99.90;;;;;;4998831;28;20060;-78
2022/09/29 08:56:33;;;;;;;21.25;19.10;;;9.20;99.90;;;;;;5005124;28;20048;-79
2022/09/29 08:58:58;;;;;;;22.95;20.55;;;9.30;99.90;;;;;;4997259;28;20042;-78
2022/09/29 09:02:07;;;;;;;23.27;19.25;;;9.40;99.90;;;;;;5000542;28;20052;-77
2022/09/29 09:04:52;;;;;;;21.17;18.80;;;9.50;99.90;;;;;;4980480;28;20045;-79
2022/09/29 09:07:30;;;;;;;16.35;14.40;;;9.50;99.90;;;;;;4968215;28;20050;-78
2022/09/29 09:10:17;;;;;;;19.77;16.42;;;9.70;99.90;;;;;;5002735;28;20500;-78
2022/09/29 09:13:15;;;;;;;16.73;15.02;;;9.70;99.90;;;;;;5003871;28;20034;-78
2022/09/29 09:15:53;;;;;;;15.82;14.23;;;9.80;99.90;;;;;;4994478;28;20097;-77
2022/09/29 09:18:51;;;;;;;18.52;16.63;;;9.90;99.90;;;;;;4999784;28;20053;-78
2022/09/29 09:21:25;;;;;;;20.05;17.98;;;10.10;99.90;;;;;;5007739;28;20129;-79
2022/09/29 09:23:56;;;;;;;14.25;12.75;;;10.20;99.90;;;;;;5006513;28;20046;-79
2022/09/29 09:26:40;;;;;;;13.40;12.07;;;10.30;99.90;;;;;;4986623;28;20045;-79
2022/09/29 09:29:31;;;;;;;14.75;13.35;;;10.40;99.90;;;;;;5005123;28;20512;-78
2022/09/29 09:32:10;;;;;;;14.82;12.73;;;10.50;99.90;;;;;;4998062;28;20496;-79
2022/09/29 09:34:44;;;;;;;14.35;12.48;;;10.60;99.90;;;;;;5000671;28;20045;-78
2022/09/29 09:37:21;;;;;;;16.80;13.05;;;10.70;99.90;;;;;;4997933;28;20057;-78
2022/09/29 09:40:03;;;;;;;14.27;12.88;;;10.80;99.90;;;;;;5008775;28;20037;-78
2022/09/29 09:42:36;;;;;;;12.65;11.27;;;10.90;99.90;;;;;;4981726;28;20100;-79
2022/09/29 09:45:26;;;;;;;15.13;13.13;;;11.00;99.90;;;;;;4987104;28;20048;-78
2022/09/29 09:48:07;;;;;;;12.43;11.13;;;11.10;99.90;;;;;;5001155;28;20101;-78
2022/09/29 09:50:38;;;;;;;13.50;12.10;;;11.20;99.90;;;;;;4998380;28;20395;-79
2022/09/29 09:53:18;;;;;;;13.60;12.20;;;11.20;99.90;;;;;;4986837;28;20042;-79
2022/09/29 09:55:55;;;;;;;13.63;12.27;;;11.30;99.90;;;;;;4995154;28;20080;-78
2022/09/29 09:58:42;;;;;;;12.55;11.40;;;11.40;99.90;;;;;;5015558;28;20073;-78
2022/09/29 10:01:10;;;;;;;14.05;11.40;;;11.50;99.90;;;;;;4996202;28;20084;-78
2022/09/29 10:03:37;;;;;;;12.00;10.88;;;11.60;99.90;;;;;;4987028;28;20060;-78
2022/09/29 10:06:06;;;;;;;12.85;11.23;;;11.70;99.90;;;;;;4992180;28;20043;-77
2022/09/29 10:08:41;;;;;;;9.82;8.13;;;11.70;99.90;;;;;;5016670;28;20048;-78
2022/09/29 10:11:25;;;;;;;8.85;7.88;;;11.80;99.90;;;;;;4998303;28;20408;-78
2022/09/29 10:14:10;;;;;;;9.07;7.65;;;11.90;99.90;;;;;;4999522;28;20034;-77
2022/09/29 10:16:56;;;;;;;7.68;6.93;;;12.00;99.90;;;;;;4996405;28;20049;-78
2022/09/29 10:19:43;;;;;;;8.85;7.88;;;12.10;99.90;;;;;;5003368;28;20658;-78
2022/09/29 10:22:13;;;;;;;8.48;7.65;;;12.30;99.90;;;;;;4985651;28;20042;-77
2022/09/29 10:24:39;;;;;;;10.05;6.60;;;12.40;99.90;;;;;;4987139;28;20062;-78
2022/09/29 10:27:06;;;;;;;7.80;6.95;;;12.50;99.90;;;;;;4977669;28;20064;-77
2022/09/29 10:29:43;;;;;;;8.43;6.68;;;12.70;99.90;;;;;;4982473;28;20077;-78
2022/09/29 10:32:20;;;;;;;5.72;5.22;;;12.80;99.90;;;;;;4982310;28;20045;-77
2022/09/29 10:34:51;;;;;;;7.22;5.43;;;12.80;99.90;;;;;;4978129;28;20050;-78
2022/09/29 10:37:34;;;;;;;7.40;6.22;;;12.90;99.90;;;;;;4995230;28;20415;-77
2022/09/29 10:40:11;;;;;;;7.07;6.37;;;12.90;99.90;;;;;;4995195;28;20053;-77
2022/09/29 10:42:39;;;;;;;7.78;5.70;;;13.00;99.90;;;;;;4978260;28;20132;-77
2022/09/29 10:45:16;;;;;;;7.40;6.60;;;13.20;99.90;;;;;;4968763;28;20092;-78
2022/09/29 10:47:55;;;;;;;8.07;5.30;;;13.40;99.90;;;;;;4990119;28;20054;-78
2022/09/29 10:50:24;;;;;;;7.55;5.93;;;13.60;99.90;;;;;;4980160;28;20055;-77
2022/09/29 10:52:53;;;;;;;6.70;5.10;;;13.80;99.90;;;;;;5002302;28;20046;-78
2022/09/29 10:55:27;;;;;;;7.32;4.97;;;14.00;99.90;;;;;;4990032;28;20055;-75
2022/09/29 10:57:57;;;;;;;6.05;4.90;;;14.00;99.90;;;;;;5000129;28;20048;-75
2022/09/29 11:00:34;;;;;;;5.20;4.70;;;14.30;99.90;;;;;;4984748;28;20054;-75
2022/09/29 11:03:25;;;;;;;4.40;4.00;;;14.50;99.90;;;;;;4995927;28;20069;-76
2022/09/29 11:06:12;;;;;;;4.20;3.90;;;14.60;99.90;;;;;;5001098;28;20103;-76
2022/09/29 11:09:01;;;;;;;5.50;4.82;;;14.70;99.90;;;;;;4987690;28;20053;-76
2022/09/29 11:11:28;;;;;;;5.10;4.60;;;14.90;99.90;;;;;;5000128;28;20050;-76
2022/09/29 11:13:56;;;;;;;5.80;4.28;;;15.10;99.90;;;;;;4986988;28;20087;-76
2022/09/29 11:16:27;;;;;;;5.00;4.28;;;15.40;99.90;;;;;;4978616;28;20170;-76
2022/09/29 11:18:57;;;;;;;3.90;3.50;;;15.60;99.90;;;;;;4993960;28;20050;-75
2022/09/29 11:21:32;;;;;;;4.82;3.60;;;15.80;99.90;;;;;;5008845;28;20046;-77
2022/09/29 11:24:35;;;;;;;3.60;3.30;;;15.80;99.90;;;;;;5009236;28;20045;-78
2022/09/29 11:27:13;;;;;;;;;;;15.60;99.90;;;;;;4994835;28;20056;-77
2022/09/29 11:29:52;;;;;;;4.75;3.38;;;15.90;99.90;;;;;;4996858;28;19917;-78
2022/09/29 11:33:04;;;;;;;4.47;3.50;;;16.20;99.90;;;;;;4996595;28;20046;-77
2022/09/29 11:35:57;;;;;;;5.25;3.15;;;16.20;99.90;;;;;;4996886;28;20045;-77
2022/09/29 11:38:43;;;;;;;3.47;3.17;;;16.60;99.90;;;;;;4996328;28;20046;-79
2022/09/29 11:41:24;;;;;;;3.67;3.38;;;16.70;99.90;;;;;;5000328;28;20066;-79
2022/09/29 11:43:57;;;;;;;3.70;2.70;;;16.60;99.90;;;;;;4996675;28;20078;-77
2022/09/29 11:46:47;;;;;;;3.05;2.63;;;16.20;99.90;;;;;;5001860;28;20133;-81
2022/09/29 11:49:32;;;;;;;5.95;3.28;;;16.40;99.90;;;;;;4997306;28;20046;-77
2022/09/29 11:52:24;;;;;;;3.40;3.10;;;16.70;99.90;;;;;;4997353;28;20046;-77
2022/09/29 11:55:05;;;;;;;3.90;3.40;;;16.90;99.90;;;;;;4997123;28;20053;-77
2022/09/29 11:57:57;;;;;;;4.03;2.60;;;17.20;99.90;;;;;;4999124;28;20394;-77
2022/09/29 12:01:00;;;;;;;5.50;2.70;;;17.40;99.90;;;;;;4994461;28;20046;-77
2022/09/29 12:03:55;;;;;;;;;;;17.70;99.90;;;;;;4960798;28;20061;-80
2022/09/29 12:06:54;;;;;;;2.80;2.20;;;17.20;98.60;;;;;;4985066;28;20015;-78
2022/09/29 12:09:32;;;;;;;2.10;1.98;;;17.10;98.70;;;;;;4947395;28;20045;-78
2022/09/29 12:11:58;;;;;;;2.35;1.88;;;17.10;99.90;;;;;;5004843;28;20045;-78
2022/09/29 12:14:29;;;;;;;3.97;2.38;;;17.40;99.90;;;;;;5002498;28;20042;-77
2022/09/29 12:17:04;;;;;;;3.05;2.47;;;17.80;99.90;;;;;;4999866;28;20037;-79
2022/09/29 12:19:35;;;;;;;3.58;2.05;;;18.10;99.90;;;;;;4994532;28;20116;-77
2022/09/29 12:22:03;;;;;;;3.75;1.95;;;18.10;99.90;;;;;;5004481;28;20046;-78
2022/09/29 12:24:41;;;;;;;3.53;2.20;;;17.80;97.70;;;;;;5010452;28;20137;-78
2022/09/29 12:27:20;;;;;;;2.20;1.67;;;17.90;99.20;;;;;;5000168;28;20125;-78
2022/09/29 12:30:17;;;;;;;5.00;2.35;;;18.20;99.20;;;;;;5016541;28;20134;-78
2022/09/29 12:33:27;;;;;;;2.35;2.00;;;18.70;99.90;;;;;;4997632;28;20041;-78
2022/09/29 12:39:29;;;;;;;2.05;1.70;;;18.90;98.80;;;;;;4976233;28;20045;-78
2022/09/29 12:42:14;;;;;;;1.38;1.23;;;19.00;97.20;;;;;;5005212;28;20049;-78
2022/09/29 12:44:47;;;;;;;3.05;2.08;;;19.40;95.70;;;;;;5002551;28;20132;-79
2022/09/29 12:47:17;;;;;;;;;;;19.70;96.60;;;;;;4985143;28;20038;-78
2022/09/29 12:49:59;;;;;;;4.70;2.45;;;19.60;94.60;;;;;;4989698;28;19917;-78
2022/09/29 12:52:55;;;;;;;4.27;2.20;;;19.30;92.90;;;;;;4992100;28;20050;-78
2022/09/29 12:55:35;;;;;;;2.60;2.05;;;19.20;97.20;;;;;;4991698;28;20054;-77
2022/09/29 12:58:05;;;;;;;5.68;1.95;;;19.40;96.90;;;;;;5002647;28;20053;-78
2022/09/29 13:00:33;;;;;;;5.82;2.40;;;19.60;96.40;;;;;;4992764;28;20421;-78
2022/09/29 13:03:36;;;;;;;2.40;2.10;;;19.70;93.70;;;;;;4989904;28;20042;-76
2022/09/29 13:06:22;;;;;;;2.72;2.28;;;19.80;95.70;;;;;;5009937;28;20053;-78
2022/09/29 13:09:05;;;;;;;3.00;1.75;;;19.90;91.90;;;;;;5000695;28;20030;-78
2022/09/29 13:11:47;;;;;;;1.83;1.67;;;20.20;91.30;;;;;;4979992;28;20133;-75
2022/09/29 13:14:35;;;;;;;3.92;2.10;;;20.30;92.00;;;;;;5009444;28;20038;-78
2022/09/29 13:17:27;;;;;;;2.67;1.80;;;19.90;91.80;;;;;;5003423;28;20105;-78
2022/09/29 13:20:24;;;;;;;3.50;1.60;;;20.20;92.10;;;;;;5014392;28;21357;-79